Time;durP1;ratioP1;P1;durP2;ratioP2;P2;SDS_P1;SDS_P2;PMS_P1;PMS_P2;Temp;Humidity;BMP_temperature;BMP_pressure;BME280_temperature;BME280_humidity;BME280_pressure;Samples;Min_cycle;Max_cycle;Signal;HPM_P1;HPM_P2
2022/08/15 00:01:19;;;;;;;16.35;7.25;;;;;;;23.92;50.46;99886.69;5094255;28;20443;-56
2022/08/15 00:03:51;;;;;;;13.23;7.38;;;;;;;23.88;50.04;99893.69;5090069;28;20054;-56
2022/08/15 00:06:22;;;;;;;15.43;7.30;;;;;;;23.84;51.18;99896.13;5093554;28;20048;-56
2022/08/15 00:08:53;;;;;;;16.40;7.50;;;;;;;23.84;51.19;99895.31;5068474;28;20052;-57
2022/08/15 00:11:24;;;;;;;16.60;7.90;;;;;;;23.71;50.98;99901.97;5074036;28;20134;-56
2022/08/15 00:13:55;;;;;;;12.32;7.25;;;;;;;23.70;51.75;99908.47;5082480;28;20429;-56
2022/08/15 00:16:23;;;;;;;14.82;7.43;;;;;;;23.67;52.04;99900.88;5073943;28;20451;-56
2022/08/15 00:18:50;;;;;;;21.05;7.80;;;;;;;23.62;51.81;99901.66;5074624;28;20068;-56
2022/08/15 00:21:20;;;;;;;14.27;7.40;;;;;;;23.61;52.19;99900.00;5074120;28;20053;-56
2022/08/15 00:23:47;;;;;;;15.32;8.02;;;;;;;23.60;51.86;99895.69;5065247;28;20036;-57
2022/08/15 00:26:14;;;;;;;17.10;7.97;;;;;;;23.62;52.11;99907.06;5041699;28;20036;-57
2022/08/15 00:28:41;;;;;;;15.25;7.40;;;;;;;23.64;52.54;99910.31;5092822;28;20078;-57
2022/08/15 00:31:10;;;;;;;14.65;7.82;;;;;;;23.60;51.98;99906.50;5091026;28;20043;-57
2022/08/15 00:33:39;;;;;;;15.95;7.97;;;;;;;23.63;52.22;99906.00;5091899;28;20043;-57
2022/08/15 00:36:07;;;;;;;14.98;8.00;;;;;;;23.63;51.40;99906.00;5091487;28;20055;-57
2022/08/15 00:38:34;;;;;;;14.73;7.95;;;;;;;23.64;51.07;99904.09;5091365;28;20558;-57
2022/08/15 00:43:57;;;;;;;13.52;7.72;;;;;;;23.60;51.02;99903.81;5075114;28;20101;-57
2022/08/15 00:46:27;;;;;;;19.43;8.37;;;;;;;23.55;50.66;99901.88;5093558;28;20040;-57
2022/08/15 00:48:55;;;;;;;16.30;7.82;;;;;;;23.57;51.54;99898.91;5089461;28;20031;-57
2022/08/15 00:51:45;;;;;;;14.70;7.90;;;;;;;23.55;50.65;99912.69;5093448;28;20047;-57
2022/08/15 00:54:21;;;;;;;15.77;7.75;;;;;;;23.53;49.80;99901.31;5078239;28;20097;-57
2022/08/15 00:56:55;;;;;;;15.18;7.40;;;;;;;23.53;50.49;99909.44;5082022;28;20045;-57
2022/08/15 00:59:26;;;;;;;15.10;7.57;;;;;;;23.44;50.54;99911.00;5093251;28;20064;-57
2022/08/15 01:01:56;;;;;;;20.13;7.93;;;;;;;23.36;50.32;99906.88;5090977;28;20052;-57
2022/08/15 01:04:23;;;;;;;15.05;7.50;;;;;;;23.37;49.67;99903.09;5093706;28;20044;-57
2022/08/15 01:06:49;;;;;;;14.80;6.90;;;;;;;23.42;46.73;99909.63;5090526;28;20497;-57
2022/08/15 01:09:18;;;;;;;13.68;7.00;;;;;;;23.37;48.81;99911.22;5092226;28;20042;-57
2022/08/15 01:11:53;;;;;;;14.85;6.35;;;;;;;23.34;46.87;99909.03;5093338;28;20044;-57
2022/08/15 01:14:22;;;;;;;12.20;6.45;;;;;;;23.31;47.68;99912.25;5087953;28;20123;-57
2022/08/15 01:16:51;;;;;;;17.42;6.13;;;;;;;23.37;47.25;99915.81;5083873;28;20043;-57
2022/08/15 01:19:34;;;;;;;15.38;6.20;;;;;;;23.37;46.69;99913.09;5077710;28;20405;-57
2022/08/15 01:22:24;;;;;;;15.20;6.40;;;;;;;23.36;46.67;99912.28;5093162;28;20048;-57
2022/08/15 01:25:11;;;;;;;12.25;6.25;;;;;;;23.36;47.96;99912.28;5083826;28;20045;-57
2022/08/15 01:27:42;;;;;;;14.77;5.90;;;;;;;23.42;46.63;99912.34;5082682;28;20375;-57
2022/08/15 01:30:11;;;;;;;;;;;;;;;23.39;45.40;99910.94;5091602;28;20048;-57
2022/08/15 01:32:38;;;;;;;15.82;5.55;;;;;;;23.47;44.45;99906.97;5089854;28;19920;-57
2022/08/15 01:35:05;;;;;;;13.52;5.50;;;;;;;23.41;45.71;99908.78;5092487;28;20089;-57
2022/08/15 01:37:33;;;;;;;14.43;5.88;;;;;;;23.45;45.00;99914.50;5072541;28;20032;-57
2022/08/15 01:40:10;;;;;;;12.50;5.40;;;;;;;23.51;44.50;99910.78;5073980;28;20575;-57
2022/08/15 01:42:42;;;;;;;12.30;5.25;;;;;;;23.44;44.50;99910.19;5085068;28;20040;-57
2022/08/15 01:45:15;;;;;;;14.95;5.22;;;;;;;23.50;44.78;99918.09;5077170;28;20048;-57
2022/08/15 01:50:44;;;;;;;22.02;5.13;;;;;;;23.35;46.06;99916.06;5111106;27;20391;-56
2022/08/15 01:53:21;;;;;;;13.90;5.05;;;;;;;23.31;46.96;99914.16;5107800;28;20374;-56
2022/08/15 01:55:59;;;;;;;11.93;4.97;;;;;;;23.27;47.04;99908.44;5109242;28;20036;-56
2022/08/15 01:58:29;;;;;;;14.07;4.65;;;;;;;23.22;47.36;99908.41;5110894;28;20036;-56
2022/08/15 02:01:06;;;;;;;15.30;5.22;;;;;;;23.19;47.66;99914.31;5111097;28;20048;-56
2022/08/15 02:03:33;;;;;;;13.27;4.65;;;;;;;23.17;47.71;99921.88;5092989;28;20048;-56
2022/08/15 02:06:09;;;;;;;12.18;4.90;;;;;;;23.16;47.26;99920.25;5090635;28;20044;-56
2022/08/15 02:08:37;;;;;;;15.43;4.95;;;;;;;23.13;47.20;99920.75;5106621;28;20051;-56
2022/08/15 02:11:11;;;;;;;13.55;4.75;;;;;;;23.33;45.52;99920.94;5109755;28;20059;-56
2022/08/15 02:13:41;;;;;;;14.45;4.78;;;;;;;23.37;45.38;99916.63;5109159;28;20047;-56
2022/08/15 02:16:08;;;;;;;12.35;4.93;;;;;;;23.17;46.33;99921.88;5110933;28;20481;-56
2022/08/15 02:18:35;;;;;;;11.23;4.45;;;;;;;23.22;45.68;99924.63;5107037;28;20044;-55
2022/08/15 02:21:02;;;;;;;14.75;4.60;;;;;;;23.40;45.39;99928.03;5089842;28;20138;-56
2022/08/15 02:23:30;;;;;;;12.00;4.85;;;;;;;23.23;46.35;99925.44;5104127;28;20051;-56
2022/08/15 02:25:57;;;;;;;17.35;4.78;;;;;;;23.26;46.06;99916.81;5043752;28;20089;-56
2022/08/15 02:28:25;;;;;;;12.25;4.78;;;;;;;23.10;48.00;99924.81;5090393;28;20387;-55
2022/08/15 02:30:54;;;;;;;16.35;4.70;;;;;;;23.25;46.62;99920.56;5075399;28;20040;-56
2022/08/15 02:33:22;;;;;;;18.67;4.78;;;;;;;23.16;46.64;99921.06;5090710;28;20036;-56
2022/08/15 02:35:51;;;;;;;22.20;4.40;;;;;;;23.18;46.68;99921.63;5090105;28;20048;-56
2022/08/15 02:38:18;;;;;;;15.60;4.78;;;;;;;23.13;46.62;99918.06;5089628;28;20040;-56
2022/08/15 02:40:47;;;;;;;15.73;4.70;;;;;;;23.25;46.69;99920.56;5104534;28;20043;-56
2022/08/15 02:43:16;;;;;;;16.45;4.43;;;;;;;23.18;47.00;99924.31;5107149;28;20055;-55
2022/08/15 02:45:47;;;;;;;12.45;4.35;;;;;;;23.15;46.86;99913.19;5110353;28;20128;-56
2022/08/15 02:48:16;;;;;;;17.23;4.50;;;;;;;23.20;46.92;99918.66;5096493;28;20385;-55
2022/08/15 02:50:45;;;;;;;12.25;4.32;;;;;;;23.10;47.26;99915.84;5102804;28;20048;-56
2022/08/15 02:53:17;;;;;;;15.52;4.50;;;;;;;22.95;48.72;99917.31;5099567;28;20028;-56
2022/08/15 02:55:46;;;;;;;15.55;4.13;;;;;;;22.97;49.11;99911.66;5088956;28;20127;-56
2022/08/15 02:58:15;;;;;;;11.82;4.15;;;;;;;22.97;49.38;99907.06;5089594;28;20182;-56
2022/08/15 03:00:45;;;;;;;13.23;4.13;;;;;;;23.05;48.63;99902.28;5083336;28;20040;-56
2022/08/15 03:03:14;;;;;;;12.63;4.65;;;;;;;23.07;47.51;99898.25;5076172;28;20072;-56
2022/08/15 03:05:47;;;;;;;11.52;4.28;;;;;;;22.94;49.74;99904.03;5075553;28;20060;-56
2022/08/15 03:08:13;;;;;;;12.18;4.40;;;;;;;22.86;50.21;99899.13;5079494;28;20378;-56
2022/08/15 03:10:41;;;;;;;10.02;4.45;;;;;;;22.73;49.57;99900.34;5095292;28;20044;-56
2022/08/15 03:13:16;;;;;;;9.85;4.07;;;;;;;22.73;49.88;99900.34;5080568;28;20135;-56
2022/08/15 03:15:52;;;;;;;11.52;4.55;;;;;;;22.66;50.67;99899.72;5086443;28;20089;-55
2022/08/15 03:18:21;;;;;;;11.52;4.20;;;;;;;22.63;50.93;99903.78;5095714;28;20047;-56
2022/08/15 03:20:51;;;;;;;11.63;4.32;;;;;;;22.61;50.97;99904.03;5094488;28;20064;-56
2022/08/15 03:23:22;;;;;;;13.10;4.70;;;;;;;22.58;51.42;99903.72;5075100;28;20131;-56
2022/08/15 03:25:53;;;;;;;11.48;4.28;;;;;;;22.57;50.97;99905.56;5045521;28;20048;-56
2022/08/15 03:28:23;;;;;;;31.30;4.68;;;;;;;22.58;51.22;99903.72;5092976;28;20138;-56
2022/08/15 03:30:51;;;;;;;19.00;3.97;;;;;;;22.56;51.52;99903.97;5093627;28;20105;-56
2022/08/15 03:33:18;;;;;;;12.43;4.13;;;;;;;22.54;50.75;99907.97;5076824;28;20054;-56
2022/08/15 03:35:50;;;;;;;12.88;4.20;;;;;;;22.54;51.50;99911.50;5075723;28;20050;-56
2022/08/15 03:38:19;;;;;;;14.10;4.50;;;;;;;22.55;50.90;99912.31;5081322;28;20055;-56
2022/08/15 03:40:48;;;;;;;13.90;4.63;;;;;;;22.57;51.27;99905.56;5075671;28;20409;-57
2022/08/15 03:43:28;;;;;;;15.73;4.47;;;;;;;22.69;49.86;99912.75;5089389;28;20128;-56
2022/08/15 03:45:59;;;;;;;13.43;3.95;;;;;;;22.69;50.91;99907.34;5095528;28;20040;-56
2022/08/15 03:48:31;;;;;;;12.35;4.25;;;;;;;22.72;50.99;99904.09;5095163;28;20059;-56
2022/08/15 03:50:59;;;;;;;17.92;4.28;;;;;;;22.72;50.75;99904.09;5095180;28;20073;-55
2022/08/15 03:53:33;;;;;;;14.85;4.30;;;;;;;22.70;50.15;99906.25;5094786;28;20059;-56
2022/08/15 03:56:03;;;;;;;12.73;4.32;;;;;;;22.69;50.50;99905.44;5083978;28;20496;-56
2022/08/15 03:58:34;;;;;;;13.52;4.80;;;;;;;22.67;50.70;99904.88;5094823;28;20059;-56
2022/08/15 04:01:06;;;;;;;12.65;4.28;;;;;;;22.69;51.54;99901.94;5095219;28;20486;-56
2022/08/15 04:03:33;;;;;;;12.18;4.20;;;;;;;22.70;50.97;99900.84;5090502;28;20127;-56
2022/08/15 04:06:02;;;;;;;10.85;4.50;;;;;;;22.67;50.90;99898.69;5094957;28;20048;-57
2022/08/15 04:08:30;;;;;;;14.45;4.53;;;;;;;22.64;50.50;99896.47;5095200;28;20047;-56
2022/08/15 04:11:01;;;;;;;22.30;4.78;;;;;;;22.64;50.86;99891.06;5090514;28;20075;-56
2022/08/15 04:13:28;;;;;;;14.80;4.60;;;;;;;22.72;50.84;99883.31;5089947;28;20048;-56
2022/08/15 04:15:58;;;;;;;15.00;4.60;;;;;;;22.68;50.65;99894.88;5091238;28;20044;-56
2022/08/15 04:18:25;;;;;;;13.80;4.35;;;;;;;22.67;51.68;99890.56;5091149;28;20101;-56
2022/08/15 04:20:55;;;;;;;13.15;4.15;;;;;;;22.70;50.71;99890.88;5092492;28;20416;-56
2022/08/15 04:23:23;;;;;;;17.65;4.05;;;;;;;22.86;49.37;99888.31;5084042;28;20037;-57
2022/08/15 04:25:50;;;;;;;15.75;4.07;;;;;;;22.84;50.14;99899.38;5023719;28;20094;-58
2022/08/15 04:28:20;;;;;;;17.65;3.95;;;;;;;22.90;49.32;99897.53;5074490;28;20058;-57
2022/08/15 04:30:48;;;;;;;12.63;4.00;;;;;;;22.89;50.64;99904.84;5073026;28;20044;-57
2022/08/15 04:33:20;;;;;;;18.98;4.10;;;;;;;22.85;49.60;99905.59;5077066;28;20040;-57
2022/08/15 04:35:50;;;;;;;14.13;4.03;;;;;;;22.85;49.94;99911.00;5074187;28;20478;-57
2022/08/15 04:38:18;;;;;;;13.68;4.03;;;;;;;22.81;49.84;99906.13;5074335;28;20082;-57
2022/08/15 04:40:48;;;;;;;10.85;4.18;;;;;;;22.72;50.02;99909.50;5093022;28;20512;-57
2022/08/15 04:43:17;;;;;;;13.35;3.80;;;;;;;22.68;50.10;99909.19;5088142;28;20040;-57
2022/08/15 04:45:44;;;;;;;12.57;3.80;;;;;;;22.66;50.26;99905.94;5091534;28;20051;-57
2022/08/15 04:48:14;;;;;;;14.27;4.00;;;;;;;22.75;49.78;99896.31;5092123;28;20079;-57
2022/08/15 04:50:44;;;;;;;18.60;4.00;;;;;;;22.74;50.44;99893.84;5094049;28;20489;-57
2022/08/15 04:53:15;;;;;;;18.30;4.30;;;;;;;22.80;50.05;99896.34;5092417;28;20101;-57
2022/08/15 04:55:43;;;;;;;18.17;4.22;;;;;;;22.88;50.24;99894.25;5089264;28;20056;-57
2022/08/15 04:58:13;;;;;;;21.27;4.45;;;;;;;22.91;49.93;99888.34;5091019;28;20048;-57
2022/08/15 05:00:48;;;;;;;13.13;4.10;;;;;;;22.91;49.59;99893.75;5074318;28;20045;-57
2022/08/15 05:03:25;;;;;;;19.38;3.85;;;;;;;22.86;49.97;99904.53;5071351;28;20056;-57
2022/08/15 05:05:59;;;;;;;14.70;3.65;;;;;;;22.95;49.50;99901.09;5090249;28;20055;-57
2022/08/15 05:08:30;;;;;;;15.57;4.03;;;;;;;22.94;49.47;99899.47;5084995;28;20055;-57
2022/08/15 05:11:05;;;;;;;11.63;3.70;;;;;;;22.95;49.50;99903.78;5086283;28;20036;-57
2022/08/15 05:13:35;;;;;;;16.60;3.50;;;;;;;23.05;49.23;99913.09;5087790;28;20411;-57
2022/08/15 05:16:07;;;;;;;14.35;3.78;;;;;;;22.96;49.69;99910.03;5085324;28;20060;-57
2022/08/15 05:18:41;;;;;;;21.50;4.30;;;;;;;22.84;50.38;99926.41;5087043;28;20043;-57
2022/08/15 05:21:10;;;;;;;14.07;4.07;;;;;;;23.03;49.10;99921.47;5113556;28;20043;-57
2022/08/15 05:23:40;;;;;;;14.15;4.07;;;;;;;22.99;49.78;99923.88;5106919;28;20048;-56
2022/08/15 05:26:12;;;;;;;17.27;4.05;;;;;;;23.00;49.76;99935.50;5045797;28;20050;-56
2022/08/15 05:28:41;;;;;;;13.93;4.85;;;;;;;22.88;50.24;99937.53;5093577;28;20405;-57
2022/08/15 05:31:12;;;;;;;12.48;4.00;;;;;;;22.88;50.07;99941.03;5093467;28;20070;-57
2022/08/15 05:33:43;;;;;;;14.07;4.03;;;;;;;22.93;50.08;99949.22;5102059;28;20074;-57
2022/08/15 05:36:11;;;;;;;13.52;3.92;;;;;;;22.90;49.98;99940.78;5101370;28;20073;-57
2022/08/15 05:38:42;;;;;;;13.40;3.90;;;;;;;22.85;50.11;99946.13;5113407;28;20522;-56
2022/08/15 05:44:35;;;;;;;13.68;4.32;;;;;;;22.89;50.63;99936.47;5110577;27;20391;-56
2022/08/15 05:49:54;;;;;;;18.42;4.72;;;;;;;22.87;51.51;99944.84;5109828;27;20346;-56
2022/08/15 05:55:19;;;;;;;15.00;3.65;;;;;;;22.99;50.17;99940.09;5108453;27;20466;-56
2022/08/15 05:58:19;;;;;;;16.42;3.67;;;;;;;23.12;49.65;99944.31;5097918;28;20080;-56
2022/08/15 06:00:53;;;;;;;16.52;4.22;;;;;;;23.11;49.95;99944.56;5099848;28;20097;-56
2022/08/15 06:03:26;;;;;;;16.50;4.57;;;;;;;23.11;49.67;99949.97;5105090;28;20512;-56
2022/08/15 06:05:56;;;;;;;23.33;4.28;;;;;;;23.08;50.16;99947.75;5085266;28;20059;-56
2022/08/15 06:08:29;;;;;;;13.90;4.07;;;;;;;23.00;50.94;99944.41;5092415;28;20031;-56
2022/08/15 06:11:08;;;;;;;17.83;3.85;;;;;;;23.18;50.19;99951.38;5105030;28;20048;-56
2022/08/15 06:13:41;;;;;;;11.40;3.95;;;;;;;23.23;50.56;99957.91;5094363;28;20467;-56
2022/08/15 06:16:24;;;;;;;19.10;4.03;;;;;;;23.20;49.81;99959.25;5104911;28;20485;-56
2022/08/15 06:18:53;;;;;;;12.45;3.92;;;;;;;23.31;49.61;99960.97;5088360;28;20394;-56
2022/08/15 06:21:33;;;;;;;11.23;3.75;;;;;;;23.18;50.38;99959.50;5075696;28;20045;-57
2022/08/15 06:24:25;;;;;;;14.57;4.28;;;;;;;23.10;50.47;99962.69;5061929;28;20054;-58
2022/08/15 06:27:28;;;;;;;14.10;4.30;;;;;;;23.26;49.94;99958.19;5090559;28;20044;-58
2022/08/15 06:30:17;;;;;;;28.63;9.38;;;;;;;23.37;50.24;99956.41;5090843;28;20054;-58
2022/08/15 06:32:55;;;;;;;20.67;4.63;;;;;;;23.23;50.72;99957.91;5108601;28;20044;-58
2022/08/15 06:35:39;;;;;;;12.90;3.92;;;;;;;23.31;50.61;99968.25;5107012;28;20052;-58
2022/08/15 06:38:34;;;;;;;13.40;4.50;;;;;;;23.42;50.24;99964.56;5102344;28;20049;-57
2022/08/15 06:41:08;;;;;;;14.82;3.60;;;;;;;23.24;50.88;99965.75;5087692;28;20121;-57
2022/08/15 06:43:34;;;;;;;14.63;4.75;;;;;;;23.43;50.44;99973.50;5101229;28;20076;-57
2022/08/15 06:46:07;;;;;;;15.00;3.65;;;;;;;23.26;50.98;99963.59;5093609;28;20111;-58
2022/08/15 06:48:38;;;;;;;15.55;4.10;;;;;;;23.27;51.52;99962.56;5114106;28;20047;-57
2022/08/15 06:51:09;;;;;;;16.63;4.07;;;;;;;23.34;51.19;99971.28;5094961;28;20040;-57
2022/08/15 06:53:51;;;;;;;24.13;4.22;;;;;;;23.47;50.36;99975.44;5085944;28;20056;-56
2022/08/15 06:56:35;;;;;;;13.70;4.93;;;;;;;23.39;51.36;99975.91;5106931;28;20454;-57
2022/08/15 06:59:24;;;;;;;20.65;4.00;;;;;;;23.51;50.63;99986.56;5102924;28;20443;-57
2022/08/15 07:02:15;;;;;;;19.63;4.40;;;;;;;23.41;51.03;99987.28;5106328;28;20451;-57
2022/08/15 07:05:10;;;;;;;16.45;4.22;;;;;;;23.57;51.22;99991.75;5096909;28;20518;-57
2022/08/15 07:08:16;;;;;;;14.48;5.13;;;;;;;23.57;51.12;99990.94;5074847;28;20551;-57
2022/08/15 07:11:27;;;;;;;13.85;4.03;;;;;;;23.36;51.70;99990.78;5073328;28;20123;-56
2022/08/15 07:17:05;;;;;;;25.15;4.10;;;;;;;23.37;52.39;99984.28;5095141;27;20397;-55
2022/08/15 07:19:37;;;;;;;20.83;4.50;;;;;;;23.39;52.73;99986.72;5080243;28;20120;-56
2022/08/15 07:22:09;;;;;;;13.65;4.22;;;;;;;23.33;52.80;99987.75;5090141;28;20454;-56
2022/08/15 07:24:37;;;;;;;16.75;4.43;;;;;;;23.42;52.79;99988.13;4957474;28;20051;-56
2022/08/15 07:27:14;;;;;;;17.65;4.40;;;;;;;23.27;53.32;99984.19;5103590;28;20048;-56
2022/08/15 07:29:47;;;;;;;15.48;4.78;;;;;;;23.21;53.80;99984.41;5070300;28;20517;-56
2022/08/15 07:35:16;;;;;;;20.88;4.40;;;;;;;23.40;53.50;99987.56;5111022;27;20351;-56
2022/08/15 07:40:34;;;;;;;13.70;4.10;;;;;;;23.33;54.06;99985.88;5090619;28;20575;-55
2022/08/15 07:43:25;;;;;;;18.50;4.53;;;;;;;23.40;53.89;99988.38;5090760;28;20048;-56
2022/08/15 07:46:07;;;;;;;;;;;;;;;23.46;54.19;99986.53;5091040;28;20072;-56
2022/08/15 07:48:34;;;;;;;18.20;3.90;;;;;;;23.46;54.17;99981.91;5090635;28;19967;-55
2022/08/15 07:53:56;;;;;;;13.73;4.20;;;;;;;23.52;53.96;99988.19;5111158;27;20828;-55
2022/08/15 07:56:33;;;;;;;16.67;3.88;;;;;;;23.52;54.09;99980.91;5111355;28;20443;-55
2022/08/15 07:59:15;;;;;;;12.18;3.65;;;;;;;23.60;53.64;99976.91;5110858;28;20042;-56
2022/08/15 08:01:46;;;;;;;14.90;3.92;;;;;;;23.55;55.70;99979.56;5110907;28;20089;-56
2022/08/15 08:04:24;;;;;;;12.35;4.10;;;;;;;23.69;54.14;99982.66;5110065;28;20408;-56
2022/08/15 08:07:03;;;;;;;13.88;3.97;;;;;;;23.61;54.18;99983.13;5110627;28;20404;-56
2022/08/15 08:09:40;;;;;;;18.70;3.95;;;;;;;23.73;54.03;99989.16;5110823;28;20044;-56
2022/08/15 08:12:28;;;;;;;17.63;4.00;;;;;;;23.73;54.05;99983.75;5110938;28;20044;-56
2022/08/15 08:15:20;;;;;;;17.10;4.38;;;;;;;23.54;54.46;99986.88;5110926;28;20054;-55
2022/08/15 08:17:55;;;;;;;16.13;4.15;;;;;;;23.57;54.51;99988.22;5110714;28;20397;-55
2022/08/15 08:20:46;;;;;;;13.77;4.20;;;;;;;23.34;55.26;99978.59;5110412;28;20507;-56
2022/08/15 08:23:26;;;;;;;16.60;3.90;;;;;;;23.48;55.27;99981.66;5110540;28;20422;-56
2022/08/15 08:26:07;;;;;;;17.30;4.35;;;;;;;23.43;55.52;99981.63;4997593;28;20051;-56
2022/08/15 08:28:46;;;;;;;17.83;4.85;;;;;;;23.51;56.04;99987.38;5110657;28;20105;-57
2022/08/15 08:31:30;;;;;;;16.83;4.10;;;;;;;23.63;55.08;99998.03;5110643;28;20055;-55
2022/08/15 08:34:22;;;;;;;13.00;4.18;;;;;;;23.56;55.33;100003.66;5109610;28;20036;-56
2022/08/15 08:37:28;;;;;;;13.93;4.10;;;;;;;23.45;55.58;100010.06;5110024;28;20040;-56
2022/08/15 08:43:12;;;;;;;14.00;4.43;;;;;;;23.37;56.23;100010.53;5110216;28;20066;-56
2022/08/15 08:45:55;;;;;;;16.10;4.30;;;;;;;23.52;55.52;100012.53;5110082;28;20047;-56
2022/08/15 08:51:25;;;;;;;17.65;5.07;;;;;;;23.32;56.55;100007.75;5110853;27;20380;-56
2022/08/15 08:54:15;;;;;;;19.65;4.38;;;;;;;23.39;55.81;100008.38;5111264;28;20044;-56
2022/08/15 08:56:48;;;;;;;18.25;4.38;;;;;;;23.36;56.17;100009.72;5109798;28;20105;-56
2022/08/15 08:59:29;;;;;;;15.35;4.70;;;;;;;23.31;56.62;100020.47;5110708;28;20382;-56
2022/08/15 09:02:14;;;;;;;15.98;4.45;;;;;;;23.46;55.89;100014.38;5110880;28;20382;-56
2022/08/15 09:04:49;;;;;;;16.30;4.80;;;;;;;23.52;56.15;100015.25;5110224;28;20129;-56
2022/08/15 09:07:25;;;;;;;17.80;5.03;;;;;;;23.38;56.68;100012.97;5111071;28;20043;-56
2022/08/15 09:09:55;;;;;;;15.10;5.00;;;;;;;23.30;56.56;100018.88;5109467;28;20044;-56
2022/08/15 09:15:24;;;;;;;16.52;5.18;;;;;;;23.30;56.82;100024.28;5090064;28;20048;-56
2022/08/15 09:17:58;;;;;;;13.70;4.78;;;;;;;23.38;56.94;100023.00;5090331;28;20055;-56
2022/08/15 09:20:31;;;;;;;15.55;5.20;;;;;;;23.29;57.11;100022.63;5089889;28;20497;-56
2022/08/15 09:22:59;;;;;;;26.88;4.78;;;;;;;23.35;57.17;100023.50;5090464;28;20048;-55
2022/08/15 09:25:29;;;;;;;18.38;4.90;;;;;;;23.23;57.79;100020.13;4972319;28;20076;-56
2022/08/15 09:28:22;;;;;;;20.00;4.97;;;;;;;23.15;58.23;100027.63;5090247;28;20493;-56
2022/08/15 09:30:49;;;;;;;14.50;5.03;;;;;;;23.11;58.42;100017.59;5088975;28;20055;-56
2022/08/15 09:33:40;;;;;;;12.55;5.10;;;;;;;23.29;58.05;100019.13;5089944;28;20044;-56
2022/08/15 09:36:26;;;;;;;16.48;5.05;;;;;;;23.22;58.42;100024.72;5089963;28;20048;-56
2022/08/15 09:39:33;;;;;;;15.95;4.72;;;;;;;23.23;58.37;100023.66;5089925;28;20538;-56
2022/08/15 09:42:31;;;;;;;14.48;5.22;;;;;;;23.15;58.28;100033.03;5089486;28;20052;-56
2022/08/15 09:45:17;;;;;;;10.68;4.68;;;;;;;23.08;58.84;100032.41;5089431;28;20102;-56
2022/08/15 09:48:25;;;;;;;13.15;5.13;;;;;;;23.16;58.33;100037.38;5096297;28;20649;-56
2022/08/15 09:51:02;;;;;;;13.70;4.95;;;;;;;23.16;58.77;100031.16;5108226;28;20059;-56
2022/08/15 09:54:01;;;;;;;13.55;5.00;;;;;;;23.26;58.83;100035.84;5110297;28;20132;-56
2022/08/15 09:56:32;;;;;;;20.35;5.15;;;;;;;23.50;59.04;100037.19;5109672;28;20044;-55
2022/08/15 10:01:46;;;;;;;17.10;4.93;;;;;;;23.80;57.59;100035.81;5110845;27;20379;-56
2022/08/15 10:04:17;;;;;;;13.45;5.03;;;;;;;23.79;57.18;100042.28;5110629;28;20521;-57
2022/08/15 10:07:07;;;;;;;19.35;5.57;;;;;;;23.70;57.44;100038.41;5110996;28;20054;-55
2022/08/15 10:09:37;;;;;;;13.68;5.25;;;;;;;23.67;58.01;100037.06;5110802;28;20040;-55
2022/08/15 10:12:22;;;;;;;18.73;5.50;;;;;;;23.61;57.87;100031.84;5111148;28;20040;-55
2022/08/15 10:23:10;;;;;;;22.73;5.28;;;;;;;23.65;57.91;100022.13;5110925;27;20354;-55
2022/08/15 10:25:41;;;;;;;16.02;5.57;;;;;;;23.70;58.08;100023.00;4985102;28;20044;-56
2022/08/15 10:33:48;;;;;;;16.55;5.30;;;;;;;23.91;57.59;100023.19;5111026;27;20823;-56
2022/08/15 10:42:14;;;;;;;22.23;5.78;;;;;;;23.77;57.79;100039.00;5111084;27;20351;-57
2022/08/15 10:45:12;;;;;;;31.63;5.80;;;;;;;23.67;57.90;100049.78;5109705;28;20517;-55
2022/08/15 10:48:08;;;;;;;16.92;6.03;;;;;;;23.52;58.88;100063.97;5110670;28;20417;-56
2022/08/15 10:51:01;;;;;;;25.05;6.13;;;;;;;23.60;59.13;100057.28;5110706;28;20048;-56
2022/08/15 10:53:40;;;;;;;;;;;;;;;23.61;58.82;100051.59;5111110;28;20101;-56
2022/08/15 10:56:11;;;;;;;18.00;6.20;;;;;;;23.61;58.90;100064.31;5111160;28;19924;-56
2022/08/15 10:58:38;;;;;;;12.93;5.75;;;;;;;23.55;59.43;100063.47;5110650;28;20489;-55
2022/08/15 11:01:11;;;;;;;12.40;5.50;;;;;;;23.57;59.39;100055.91;5110630;28;20393;-55
2022/08/15 11:04:01;;;;;;;18.08;5.93;;;;;;;23.58;59.22;100058.34;5110695;28;20048;-57
2022/08/15 11:06:29;;;;;;;16.25;6.43;;;;;;;23.70;59.23;100062.78;5110832;28;20408;-56
2022/08/15 11:09:05;;;;;;;20.38;6.13;;;;;;;23.54;59.45;100057.25;5110733;28;20079;-56
2022/08/15 11:11:38;;;;;;;18.77;6.07;;;;;;;23.48;59.98;100066.38;5110765;28;20060;-56
2022/08/15 11:14:15;;;;;;;20.15;5.97;;;;;;;23.55;59.61;100063.47;5110568;28;20044;-56
2022/08/15 11:16:47;;;;;;;19.00;6.35;;;;;;;23.56;59.84;100068.63;5109182;28;20046;-55
2022/08/15 11:19:33;;;;;;;16.60;6.00;;;;;;;23.56;59.82;100067.81;5110371;28;20071;-56
2022/08/15 11:22:04;;;;;;;21.67;6.20;;;;;;;23.65;60.40;100073.56;5110560;28;20047;-56
2022/08/15 11:24:38;;;;;;;14.25;6.43;;;;;;;23.70;59.80;100076.31;4988364;28;20044;-56
2022/08/15 11:27:17;;;;;;;18.60;6.10;;;;;;;23.69;59.74;100072.81;5110426;28;20040;-56
2022/08/15 11:29:46;;;;;;;14.38;6.05;;;;;;;23.62;59.56;100076.81;5108666;28;20331;-56
2022/08/15 11:32:24;;;;;;;17.05;6.57;;;;;;;23.71;59.10;100076.06;5109913;28;20444;-56
2022/08/15 11:34:51;;;;;;;16.83;6.60;;;;;;;23.67;59.32;100072.25;5109725;28;20131;-57
2022/08/15 11:37:22;;;;;;;18.75;6.50;;;;;;;23.65;59.05;100081.69;5110295;28;20109;-57
2022/08/15 11:40:04;;;;;;;20.45;6.15;;;;;;;23.54;59.10;100078.09;5109409;28;20044;-57
2022/08/15 11:42:36;;;;;;;15.88;6.53;;;;;;;23.47;60.07;100081.00;5109843;28;20048;-57
2022/08/15 11:45:14;;;;;;;16.63;6.32;;;;;;;23.39;60.90;100073.31;5108660;28;20044;-57
2022/08/15 11:47:49;;;;;;;15.23;6.65;;;;;;;23.38;61.69;100077.13;5109895;28;20396;-57
2022/08/15 11:50:28;;;;;;;16.00;6.20;;;;;;;23.30;62.91;100077.56;5110036;28;20040;-57
2022/08/15 11:52:59;;;;;;;12.70;6.32;;;;;;;23.36;61.91;100079.25;5096520;28;20098;-57
2022/08/15 11:58:19;;;;;;;19.35;6.30;;;;;;;23.50;61.25;100077.78;5110994;27;20152;-55
2022/08/15 12:00:50;;;;;;;16.42;6.13;;;;;;;23.47;61.29;100077.47;5110669;28;20047;-56
2022/08/15 12:03:30;;;;;;;18.77;6.05;;;;;;;23.47;61.81;100082.88;5109545;28;20139;-56
2022/08/15 12:06:19;;;;;;;14.48;6.40;;;;;;;23.31;61.92;100082.72;5110672;28;20122;-56
2022/08/15 12:08:48;;;;;;;15.73;6.32;;;;;;;23.32;61.70;100084.38;5109872;28;20040;-57
2022/08/15 12:11:18;;;;;;;17.50;5.95;;;;;;;23.30;61.63;100083.81;5110285;28;20067;-57
2022/08/15 12:14:04;;;;;;;21.48;5.90;;;;;;;23.38;61.40;100083.34;5109779;28;20050;-56
2022/08/15 12:16:40;;;;;;;15.20;6.07;;;;;;;23.40;61.36;100082.28;5110690;28;20044;-56
2022/08/15 12:19:29;;;;;;;20.05;6.55;;;;;;;23.33;60.64;100088.69;5110848;28;20044;-56
2022/08/15 12:21:58;;;;;;;17.15;5.68;;;;;;;23.30;61.90;100093.78;5110371;28;20066;-56
2022/08/15 12:24:28;;;;;;;16.55;6.50;;;;;;;23.18;61.89;100086.63;4984293;28;20134;-57
2022/08/15 12:26:57;;;;;;;21.33;6.53;;;;;;;23.40;61.76;100091.19;5110449;28;20493;-57
2022/08/15 12:29:25;;;;;;;14.20;5.80;;;;;;;23.48;61.78;100079.91;5110579;28;20052;-58
2022/08/15 12:31:53;;;;;;;16.30;6.18;;;;;;;23.66;60.07;100083.31;5109759;28;20504;-56
2022/08/15 12:34:24;;;;;;;15.40;5.55;;;;;;;23.76;60.07;100073.41;5110501;28;20145;-57
2022/08/15 12:36:51;;;;;;;12.77;5.18;;;;;;;23.80;56.80;100081.88;5110495;28;20397;-57
2022/08/15 12:39:19;;;;;;;13.85;5.35;;;;;;;23.88;57.00;100077.84;5110286;28;20481;-57
2022/08/15 12:41:50;;;;;;;15.65;5.82;;;;;;;23.85;56.83;100086.50;5109204;28;20485;-57
2022/08/15 12:44:24;;;;;;;13.57;5.45;;;;;;;23.99;56.70;100079.56;5110316;28;20050;-57
2022/08/15 12:46:54;;;;;;;11.32;5.95;;;;;;;24.08;56.08;100071.78;5110995;28;20047;-57
2022/08/15 12:49:21;;;;;;;14.00;5.82;;;;;;;24.03;55.65;100082.56;5109915;28;20192;-57
2022/08/15 12:51:48;;;;;;;10.85;5.40;;;;;;;24.14;55.92;100084.31;5110090;28;20051;-56
2022/08/15 12:54:15;;;;;;;14.45;5.53;;;;;;;24.31;55.40;100081.44;5109610;28;20510;-57
2022/08/15 12:56:43;;;;;;;13.10;5.47;;;;;;;24.37;54.50;100085.78;5109553;28;20554;-57
2022/08/15 12:59:13;;;;;;;16.30;5.82;;;;;;;24.36;54.33;100089.59;5109532;28;20048;-56